Time;durP1;ratioP1;P1;durP2;ratioP2;P2;SDS_P1;SDS_P2;PMS_P1;PMS_P2;Temp;Humidity;BMP_temperature;BMP_pressure;BME280_temperature;BME280_humidity;BME280_pressure;Samples;Min_cycle;Max_cycle;Signal;HPM_P1;HPM_P2
2022/08/05 00:00:07;;;;;;;;;;;24.20;78.90;;;;;;1997411;28;19906;-72
2022/08/05 00:01:13;;;;;;;;;;;24.20;78.90;;;;;;1991748;28;19921;-72
2022/08/05 00:02:13;;;;;;;;;;;24.20;78.90;;;;;;1994367;28;19946;-71
2022/08/05 00:03:11;;;;;;;;;;;24.20;78.90;;;;;;2002307;28;19917;-73
2022/08/05 00:04:10;;;;;;;;;;;24.20;78.90;;;;;;2003514;28;19937;-72
2022/08/05 00:05:08;;;;;;;;;;;24.20;78.90;;;;;;1996869;28;19979;-72
2022/08/05 00:06:07;;;;;;;;;;;24.20;78.90;;;;;;1994266;28;19906;-73
2022/08/05 00:07:06;;;;;;;;;;;24.20;78.90;;;;;;1984899;29;19906;-72
2022/08/05 00:08:04;;;;;;;;;;;24.20;78.90;;;;;;1989322;29;19911;-71
2022/08/05 00:09:03;;;;;;;;;;;24.20;78.80;;;;;;1997441;28;19917;-73
2022/08/05 00:10:02;;;;;;;;;;;24.20;78.80;;;;;;1990097;28;19906;-73
2022/08/05 00:11:01;;;;;;;;;;;24.20;78.80;;;;;;1990292;28;19963;-72
2022/08/05 00:12:00;;;;;;;;;;;24.20;78.80;;;;;;1990111;28;20486;-73
2022/08/05 00:12:58;;;;;;;;;;;24.20;78.80;;;;;;1990260;28;20013;-73
2022/08/05 00:13:57;;;;;;;;;;;24.20;78.80;;;;;;1989738;28;19910;-73
2022/08/05 00:14:55;;;;;;;;;;;24.20;78.80;;;;;;1995774;28;19906;-72
2022/08/05 00:15:54;;;;;;;;;;;24.20;78.80;;;;;;1997330;28;19914;-71
2022/08/05 00:16:52;;;;;;;;;;;24.20;78.70;;;;;;1997050;28;19912;-72
2022/08/05 00:17:51;;;;;;;;;;;24.20;78.70;;;;;;1997857;28;19918;-73
2022/08/05 00:18:49;;;;;;;;;;;24.20;78.70;;;;;;1997989;28;19906;-72
2022/08/05 00:19:48;;;;;;;;;;;24.20;78.70;;;;;;1994171;28;19941;-72
2022/08/05 00:20:46;;;;;;;;;;;24.20;78.70;;;;;;1990598;28;19906;-72
2022/08/05 00:21:46;;;;;;;;;;;24.20;78.70;;;;;;1989792;28;19941;-72
2022/08/05 00:22:44;;;;;;;;;;;24.20;78.70;;;;;;1989177;28;20071;-73
2022/08/05 00:23:44;;;;;;;;;;;24.20;78.60;;;;;;1989269;28;19910;-72
2022/08/05 00:24:42;;;;;;;;;;;24.20;78.70;;;;;;1989300;28;20361;-73
2022/08/05 00:25:41;;;;;;;;;;;24.20;78.70;;;;;;1989360;28;19910;-72
2022/08/05 00:26:39;;;;;;;;;;;24.20;78.70;;;;;;1990026;28;19906;-72
2022/08/05 00:27:38;;;;;;;;;;;24.20;78.60;;;;;;1990980;28;19965;-73
2022/08/05 00:28:36;;;;;;;;;;;24.20;78.70;;;;;;1990875;28;19906;-72
2022/08/05 00:29:35;;;;;;;;;;;24.20;78.60;;;;;;1997932;28;19906;-73
2022/08/05 00:30:33;;;;;;;;;;;24.20;78.60;;;;;;1999945;28;19958;-72
2022/08/05 00:31:32;;;;;;;;;;;24.20;78.60;;;;;;1994820;28;19906;-73
2022/08/05 00:32:30;;;;;;;;;;;24.20;78.60;;;;;;1994121;28;19997;-72
2022/08/05 00:33:29;;;;;;;;;;;24.20;78.60;;;;;;1995374;28;19906;-73
2022/08/05 00:34:27;;;;;;;;;;;24.20;78.60;;;;;;1995407;28;19917;-71
2022/08/05 00:35:26;;;;;;;;;;;24.20;78.60;;;;;;1995738;28;19935;-71
2022/08/05 00:36:24;;;;;;;;;;;24.20;78.60;;;;;;1997133;28;19945;-73
2022/08/05 00:37:23;;;;;;;;;;;24.20;78.60;;;;;;1997131;28;20305;-71
2022/08/05 00:38:21;;;;;;;;;;;24.20;78.60;;;;;;2007256;28;19894;-71
2022/08/05 00:39:20;;;;;;;;;;;24.20;78.60;;;;;;2007213;28;19937;-72
2022/08/05 00:40:19;;;;;;;;;;;24.10;78.40;;;;;;2007646;28;19906;-71
2022/08/05 00:41:28;;;;;;;;;;;24.20;78.50;;;;;;2007337;28;19939;-72
2022/08/05 00:42:30;;;;;;;;;;;24.10;78.40;;;;;;1999787;28;19907;-71
2022/08/05 00:43:30;;;;;;;;;;;24.10;78.40;;;;;;1999839;28;19894;-71
2022/08/05 00:44:28;;;;;;;;;;;24.10;78.40;;;;;;1999973;28;19894;-70
2022/08/05 00:45:27;;;;;;;;;;;24.10;78.40;;;;;;1999802;28;19930;-70
2022/08/05 00:46:26;;;;;;;;;;;24.10;78.40;;;;;;1999832;28;19910;-70
2022/08/05 00:47:24;;;;;;;;;;;24.10;78.30;;;;;;1999624;28;19917;-71
2022/08/05 00:48:23;;;;;;;;;;;24.10;78.30;;;;;;1999459;28;19894;-70
2022/08/05 00:49:22;;;;;;;;;;;24.10;78.30;;;;;;2006860;28;19913;-72
2022/08/05 00:50:20;;;;;;;;;;;24.10;78.20;;;;;;1999735;28;20419;-72
2022/08/05 00:51:19;;;;;;;;;;;24.10;78.30;;;;;;1991735;28;19906;-72
2022/08/05 00:52:18;;;;;;;;;;;24.10;78.30;;;;;;1990944;28;19941;-72
2022/08/05 00:53:19;;;;;;;;;;;24.10;78.30;;;;;;1991193;28;19937;-72
2022/08/05 00:54:18;;;;;;;;;;;24.10;78.20;;;;;;1991032;28;19906;-73
2022/08/05 00:55:16;;;;;;;;;;;24.10;78.20;;;;;;1990968;28;19914;-72
2022/08/05 00:56:15;;;;;;;;;;;24.10;78.20;;;;;;1995844;28;19894;-71
2022/08/05 00:57:14;;;;;;;;;;;24.10;78.20;;;;;;1999949;28;19897;-70
2022/08/05 00:58:13;;;;;;;;;;;24.10;78.20;;;;;;1999862;28;19906;-71
2022/08/05 00:59:11;;;;;;;;;;;24.10;78.20;;;;;;1999747;28;19906;-71
2022/08/05 01:00:10;;;;;;;;;;;24.10;78.10;;;;;;2007337;28;19910;-71
2022/08/05 01:01:10;;;;;;;;;;;24.10;78.10;;;;;;2007149;28;19893;-71
2022/08/05 01:02:10;;;;;;;;;;;24.10;78.10;;;;;;2000030;28;19906;-71
2022/08/05 01:03:09;;;;;;;;;;;24.10;78.10;;;;;;1996550;28;19917;-71
2022/08/05 01:04:07;;;;;;;;;;;24.10;78.10;;;;;;1995045;28;19910;-71
2022/08/05 01:05:06;;;;;;;;;;;24.10;78.00;;;;;;2004342;28;20007;-70
2022/08/05 01:06:06;;;;;;;;;;;24.10;78.00;;;;;;2006681;28;19925;-70
2022/08/05 01:07:05;;;;;;;;;;;24.10;78.00;;;;;;1999031;28;19906;-72
2022/08/05 01:08:04;;;;;;;;;;;24.10;78.00;;;;;;1999560;28;19969;-72
2022/08/05 01:09:04;;;;;;;;;;;24.10;78.00;;;;;;1999832;28;19921;-72
2022/08/05 01:10:04;;;;;;;;;;;24.10;78.00;;;;;;2006964;28;19977;-70
2022/08/05 01:11:09;;;;;;;;;;;24.10;78.00;;;;;;2006931;28;19893;-71
2022/08/05 01:12:10;;;;;;;;;;;24.10;78.00;;;;;;1999814;28;19921;-71
2022/08/05 01:13:13;;;;;;;;;;;24.10;78.00;;;;;;2006838;28;19905;-71
2022/08/05 01:14:44;;;;;;;;;;;24.10;78.00;;;;;;2006748;28;19906;-71
2022/08/05 01:15:45;;;;;;;;;;;24.10;78.00;;;;;;1998601;28;19922;-71
2022/08/05 01:16:53;;;;;;;;;;;24.10;78.00;;;;;;1999068;28;19926;-71
2022/08/05 01:17:58;;;;;;;;;;;24.10;77.90;;;;;;1999702;28;19906;-71
2022/08/05 01:19:00;;;;;;;;;;;24.10;77.90;;;;;;1999458;28;19906;-72
2022/08/05 01:20:19;;;;;;;;;;;24.10;77.90;;;;;;1999341;28;19916;-70
2022/08/05 01:21:30;;;;;;;;;;;24.10;77.90;;;;;;1998811;28;19970;-71
2022/08/05 01:22:47;;;;;;;;;;;24.10;77.90;;;;;;1997936;28;19894;-72
2022/08/05 01:23:56;;;;;;;;;;;24.10;78.50;;;;;;1993514;28;19906;-73
2022/08/05 01:25:01;;;;;;;;;;;24.10;77.80;;;;;;1993392;28;19910;-73
2022/08/05 01:26:20;;;;;;;;;;;24.10;77.80;;;;;;1993122;28;19908;-72
2022/08/05 01:27:28;;;;;;;;;;;24.10;77.80;;;;;;2000210;28;19906;-72
2022/08/05 01:28:34;;;;;;;;;;;24.10;77.80;;;;;;1999439;28;19913;-74
2022/08/05 01:29:35;;;;;;;;;;;24.10;77.70;;;;;;1992521;28;19906;-73
2022/08/05 01:30:35;;;;;;;;;;;24.10;77.70;;;;;;1992171;28;19965;-72
2022/08/05 01:31:33;;;;;;;;;;;24.10;77.70;;;;;;1991752;28;19906;-73
2022/08/05 01:32:33;;;;;;;;;;;24.10;77.70;;;;;;1992014;28;19906;-72
2022/08/05 01:33:34;;;;;;;;;;;24.10;77.70;;;;;;1994496;28;20001;-72
2022/08/05 01:34:32;;;;;;;;;;;24.10;77.70;;;;;;1994219;28;19906;-72
2022/08/05 01:35:32;;;;;;;;;;;24.10;77.70;;;;;;1992545;28;19910;-73
2022/08/05 01:36:32;;;;;;;;;;;24.10;77.70;;;;;;1997384;28;19910;-72
2022/08/05 01:37:43;;;;;;;;;;;24.10;77.70;;;;;;1997215;28;19949;-74
2022/08/05 01:38:43;;;;;;;;;;;24.10;77.70;;;;;;1997969;28;19947;-72
2022/08/05 01:39:43;;;;;;;;;;;24.10;77.70;;;;;;1994132;28;19914;-71
2022/08/05 01:40:42;;;;;;;;;;;24.10;77.70;;;;;;1989985;28;19910;-72
2022/08/05 01:41:41;;;;;;;;;;;24.10;78.30;;;;;;1990099;28;20266;-73
2022/08/05 01:42:41;;;;;;;;;;;24.10;77.70;;;;;;1990052;28;19949;-73
2022/08/05 01:43:42;;;;;;;;;;;24.10;77.60;;;;;;1990018;28;19928;-74
2022/08/05 01:44:41;;;;;;;;;;;24.10;77.60;;;;;;1989359;28;19918;-74
2022/08/05 01:45:40;;;;;;;;;;;24.10;77.50;;;;;;1989967;28;19957;-72
2022/08/05 01:46:40;;;;;;;;;;;24.10;77.60;;;;;;1990004;28;19993;-71
2022/08/05 01:47:39;;;;;;;;;;;24.10;77.50;;;;;;1990037;28;19906;-72
2022/08/05 01:48:37;;;;;;;;;;;24.10;77.50;;;;;;1990002;28;19929;-73
2022/08/05 01:49:38;;;;;;;;;;;24.10;77.50;;;;;;1990076;28;19960;-72
2022/08/05 01:50:37;;;;;;;;;;;24.10;77.50;;;;;;1989878;28;19937;-72
2022/08/05 01:51:38;;;;;;;;;;;24.10;77.50;;;;;;1989998;28;20422;-72
2022/08/05 01:52:37;;;;;;;;;;;24.10;77.50;;;;;;1989994;28;19906;-72
2022/08/05 01:53:37;;;;;;;;;;;24.10;77.50;;;;;;1990377;28;19913;-72
2022/08/05 01:54:39;;;;;;;;;;;24.10;77.50;;;;;;1990585;28;19990;-72
2022/08/05 01:55:39;;;;;;;;;;;24.10;77.40;;;;;;1990535;28;19913;-72
2022/08/05 01:56:39;;;;;;;;;;;24.10;77.40;;;;;;1990342;28;19906;-72
2022/08/05 01:57:39;;;;;;;;;;;24.10;77.40;;;;;;1990477;28;20318;-72
2022/08/05 01:58:39;;;;;;;;;;;24.10;77.40;;;;;;1990661;28;19941;-72
2022/08/05 01:59:39;;;;;;;;;;;24.10;77.40;;;;;;1997473;28;19905;-72
2022/08/05 02:00:39;;;;;;;;;;;24.10;77.40;;;;;;1997488;28;19936;-72
2022/08/05 02:01:38;;;;;;;;;;;24.10;77.40;;;;;;1990241;28;20037;-73
2022/08/05 02:02:40;;;;;;;;;;;24.10;77.40;;;;;;1989858;28;20416;-72
2022/08/05 02:03:42;;;;;;;;;;;24.10;77.40;;;;;;1989841;28;19906;-72
2022/08/05 02:04:41;;;;;;;;;;;24.10;77.40;;;;;;1989928;28;19917;-73
2022/08/05 02:05:42;;;;;;;;;;;24.10;77.30;;;;;;1989858;28;19952;-72
2022/08/05 02:06:40;;;;;;;;;;;24.10;77.40;;;;;;1989787;28;20393;-72
2022/08/05 02:07:41;;;;;;;;;;;24.10;77.40;;;;;;1989900;28;19906;-73
2022/08/05 02:08:41;;;;;;;;;;;24.00;77.20;;;;;;1989931;28;19906;-72
2022/08/05 02:09:40;;;;;;;;;;;24.10;77.40;;;;;;1989837;28;20382;-72
2022/08/05 02:10:40;;;;;;;;;;;24.10;77.30;;;;;;1989845;28;19961;-72
2022/08/05 02:11:57;;;;;;;;;;;24.10;77.30;;;;;;1989869;28;19906;-73
2022/08/05 02:13:00;;;;;;;;;;;24.10;77.30;;;;;;1989900;28;20000;-72
2022/08/05 02:14:04;;;;;;;;;;;24.00;77.20;;;;;;1989813;28;19913;-73
2022/08/05 02:15:07;;;;;;;;;;;24.10;77.30;;;;;;1989792;28;19906;-71
2022/08/05 02:16:19;;;;;;;;;;;24.00;77.20;;;;;;1989673;28;20332;-74
2022/08/05 02:17:38;;;;;;;;;;;24.10;77.30;;;;;;1989817;28;20281;-75
2022/08/05 02:18:43;;;;;;;;;;;24.10;77.30;;;;;;1996335;28;20495;-73
2022/08/05 02:19:49;;;;;;;;;;;24.00;77.20;;;;;;2004519;28;20370;-72
2022/08/05 02:20:53;;;;;;;;;;;24.00;77.20;;;;;;1996544;28;20348;-73
2022/08/05 02:21:57;;;;;;;;;;;24.00;77.20;;;;;;1989771;28;19989;-73
2022/08/05 02:23:00;;;;;;;;;;;24.00;77.10;;;;;;1989908;28;19934;-73
2022/08/05 02:24:01;;;;;;;;;;;24.00;77.10;;;;;;1989913;28;19978;-73
2022/08/05 02:25:04;;;;;;;;;;;24.00;77.10;;;;;;1989741;28;19906;-72
2022/08/05 02:26:04;;;;;;;;;;;24.00;77.10;;;;;;1989809;28;19906;-73
2022/08/05 02:27:05;;;;;;;;;;;24.00;77.10;;;;;;1981483;28;19910;-73
2022/08/05 02:28:05;;;;;;;;;;;24.00;77.10;;;;;;1981443;29;19910;-73
2022/08/05 02:29:05;;;;;;;;;;;24.00;77.10;;;;;;1989722;28;20277;-73
2022/08/05 02:30:05;;;;;;;;;;;24.00;77.00;;;;;;1989717;28;19907;-73
2022/08/05 02:31:08;;;;;;;;;;;24.00;77.00;;;;;;1989716;28;19906;-72
2022/08/05 02:32:08;;;;;;;;;;;24.00;77.00;;;;;;1989618;28;19937;-72
2022/08/05 02:33:08;;;;;;;;;;;24.00;77.00;;;;;;1989605;28;19957;-73
2022/08/05 02:34:08;;;;;;;;;;;24.10;77.20;;;;;;1989615;28;19981;-73
2022/08/05 02:35:11;;;;;;;;;;;24.10;77.10;;;;;;1989577;28;20361;-73
2022/08/05 02:36:11;;;;;;;;;;;24.00;77.00;;;;;;1989660;28;20337;-72
2022/08/05 02:37:10;;;;;;;;;;;24.00;77.00;;;;;;1989577;28;19906;-72
2022/08/05 02:38:09;;;;;;;;;;;24.00;77.00;;;;;;1989743;28;19906;-74
2022/08/05 02:39:09;;;;;;;;;;;24.00;77.00;;;;;;1996955;28;19910;-73
2022/08/05 02:40:08;;;;;;;;;;;24.00;77.00;;;;;;1996812;28;20322;-73
2022/08/05 02:41:07;;;;;;;;;;;24.00;77.00;;;;;;1989889;28;19906;-72
2022/08/05 02:42:07;;;;;;;;;;;24.00;76.90;;;;;;1989803;28;19925;-73
2022/08/05 02:43:05;;;;;;;;;;;24.10;76.90;;;;;;1989594;28;19972;-73
2022/08/05 02:44:07;;;;;;;;;;;24.10;76.70;;;;;;1989539;28;19906;-73
2022/08/05 02:45:06;;;;;;;;;;;24.10;76.60;;;;;;1989491;28;19997;-73
2022/08/05 02:46:05;;;;;;;;;;;24.10;76.70;;;;;;1989437;28;20329;-73
2022/08/05 02:47:04;;;;;;;;;;;24.10;76.70;;;;;;1989524;28;19910;-72
2022/08/05 02:48:03;;;;;;;;;;;24.10;76.90;;;;;;1989507;28;20283;-73
2022/08/05 02:49:01;;;;;;;;;;;24.00;76.80;;;;;;1989519;28;19906;-73
2022/08/05 02:50:00;;;;;;;;;;;24.00;76.80;;;;;;1989571;28;19917;-73
2022/08/05 02:50:59;;;;;;;;;;;24.00;76.70;;;;;;1989421;28;20320;-73
2022/08/05 02:51:58;;;;;;;;;;;24.00;76.70;;;;;;1989518;28;19992;-74
2022/08/05 02:52:57;;;;;;;;;;;24.00;76.70;;;;;;1989652;28;19906;-72
2022/08/05 02:53:55;;;;;;;;;;;24.00;76.70;;;;;;1989445;28;19913;-73
2022/08/05 02:54:54;;;;;;;;;;;24.00;76.80;;;;;;1989174;28;19973;-72
2022/08/05 02:55:53;;;;;;;;;;;24.00;76.70;;;;;;1988377;28;19996;-72
2022/08/05 02:56:52;;;;;;;;;;;24.00;76.70;;;;;;1988379;28;19957;-72
2022/08/05 02:57:50;;;;;;;;;;;24.00;76.80;;;;;;1989502;28;19997;-72
2022/08/05 02:58:49;;;;;;;;;;;24.00;76.80;;;;;;1996536;28;19913;-73
2022/08/05 02:59:49;;;;;;;;;;;24.00;76.90;;;;;;1996580;28;19912;-72
2022/08/05 03:00:48;;;;;;;;;;;24.00;76.90;;;;;;1989743;28;19941;-72
2022/08/05 03:01:49;;;;;;;;;;;24.00;77.00;;;;;;1989437;28;19909;-71
2022/08/05 03:02:48;;;;;;;;;;;24.00;77.00;;;;;;1989457;28;19906;-73
2022/08/05 03:03:48;;;;;;;;;;;24.00;77.00;;;;;;1989605;28;19906;-71
2022/08/05 03:04:48;;;;;;;;;;;24.00;77.00;;;;;;1996769;28;19917;-72
2022/08/05 03:05:47;;;;;;;;;;;24.00;77.00;;;;;;1996749;28;20003;-72
2022/08/05 03:06:45;;;;;;;;;;;24.00;77.00;;;;;;1989750;28;19906;-71
2022/08/05 03:07:44;;;;;;;;;;;24.00;76.90;;;;;;1989595;28;19910;-73
2022/08/05 03:08:43;;;;;;;;;;;24.00;77.00;;;;;;1989442;28;19906;-72
2022/08/05 03:09:43;;;;;;;;;;;24.00;77.00;;;;;;1989386;28;19925;-72
2022/08/05 03:10:44;;;;;;;;;;;24.00;77.00;;;;;;1989365;28;19910;-72
2022/08/05 03:11:43;;;;;;;;;;;24.00;77.00;;;;;;1989431;28;19906;-72
2022/08/05 03:12:41;;;;;;;;;;;24.00;77.00;;;;;;1989384;28;19996;-73
2022/08/05 03:13:40;;;;;;;;;;;24.00;77.00;;;;;;1989381;28;20322;-73
2022/08/05 03:14:38;;;;;;;;;;;24.00;77.00;;;;;;1996511;28;19905;-75
2022/08/05 03:15:40;;;;;;;;;;;24.00;77.00;;;;;;1996295;28;20329;-71
2022/08/05 03:16:40;;;;;;;;;;;24.00;77.00;;;;;;1989220;28;19952;-73
2022/08/05 03:17:39;;;;;;;;;;;24.00;77.10;;;;;;1989427;28;20354;-72
2022/08/05 03:18:37;;;;;;;;;;;23.90;77.00;;;;;;1989558;28;19906;-72
2022/08/05 03:19:36;;;;;;;;;;;24.00;77.80;;;;;;1989381;28;19906;-71
2022/08/05 03:20:34;;;;;;;;;;;24.00;77.00;;;;;;1989244;28;19929;-73
2022/08/05 03:21:33;;;;;;;;;;;24.00;77.10;;;;;;1989496;28;19914;-74
2022/08/05 03:22:32;;;;;;;;;;;24.00;77.00;;;;;;1989331;28;19906;-72
2022/08/05 03:23:31;;;;;;;;;;;24.00;77.00;;;;;;1989349;28;19910;-72
2022/08/05 03:24:29;;;;;;;;;;;24.00;77.00;;;;;;1989363;28;19913;-72
2022/08/05 03:25:28;;;;;;;;;;;24.00;77.00;;;;;;1989234;28;19912;-72
2022/08/05 03:26:27;;;;;;;;;;;24.00;77.00;;;;;;1989313;28;19941;-72
2022/08/05 03:27:26;;;;;;;;;;;24.00;77.00;;;;;;1989324;28;19993;-72
2022/08/05 03:28:24;;;;;;;;;;;24.00;77.00;;;;;;1989424;28;19906;-72
2022/08/05 03:29:23;;;;;;;;;;;24.00;77.00;;;;;;1989320;28;19913;-73
2022/08/05 03:30:22;;;;;;;;;;;24.00;77.00;;;;;;1989241;28;19964;-71
2022/08/05 03:31:21;;;;;;;;;;;24.00;77.00;;;;;;1989461;28;19956;-73
2022/08/05 03:32:20;;;;;;;;;;;23.90;77.00;;;;;;1989342;28;19956;-72
2022/08/05 03:33:19;;;;;;;;;;;23.90;77.00;;;;;;1989367;28;19906;-72
2022/08/05 03:34:18;;;;;;;;;;;23.90;77.00;;;;;;1989246;28;19938;-71
2022/08/05 03:35:16;;;;;;;;;;;23.90;77.00;;;;;;1989271;28;19910;-73
2022/08/05 03:36:14;;;;;;;;;;;23.90;77.10;;;;;;1989315;28;19910;-72
2022/08/05 03:37:13;;;;;;;;;;;23.90;77.00;;;;;;1989218;28;19906;-71
2022/08/05 03:38:12;;;;;;;;;;;23.90;77.00;;;;;;1996403;28;19912;-73
2022/08/05 03:39:10;;;;;;;;;;;23.90;77.00;;;;;;1996520;28;19910;-72
2022/08/05 03:40:09;;;;;;;;;;;23.90;77.00;;;;;;1989888;28;19910;-71
2022/08/05 03:41:08;;;;;;;;;;;23.90;77.00;;;;;;1989124;28;19906;-72
2022/08/05 03:42:06;;;;;;;;;;;23.90;77.00;;;;;;1996540;28;19906;-74
2022/08/05 03:43:06;;;;;;;;;;;23.90;77.10;;;;;;1996537;28;19921;-71
2022/08/05 03:44:05;;;;;;;;;;;23.90;77.00;;;;;;1989563;28;20000;-72
2022/08/05 03:45:03;;;;;;;;;;;23.90;77.00;;;;;;1989354;28;20338;-73
2022/08/05 03:46:02;;;;;;;;;;;23.90;77.10;;;;;;1989271;28;19917;-72
2022/08/05 03:47:01;;;;;;;;;;;23.90;77.10;;;;;;1989339;28;19949;-72
2022/08/05 03:47:59;;;;;;;;;;;23.90;77.10;;;;;;1989226;28;19913;-72
2022/08/05 03:48:58;;;;;;;;;;;23.90;77.10;;;;;;1989191;28;19906;-72
2022/08/05 03:49:57;;;;;;;;;;;23.90;77.20;;;;;;1989259;28;19906;-72
2022/08/05 03:51:14;;;;;;;;;;;23.90;77.10;;;;;;1989134;28;19957;-72
2022/08/05 03:52:18;;;;;;;;;;;23.90;77.10;;;;;;1989331;28;19913;-72
2022/08/05 03:53:29;;;;;;;;;;;23.90;77.10;;;;;;1989258;28;20000;-73
2022/08/05 03:54:39;;;;;;;;;;;23.90;77.10;;;;;;1989137;28;19906;-73
2022/08/05 03:55:44;;;;;;;;;;;23.80;77.10;;;;;;1989139;28;19916;-72
2022/08/05 03:56:45;;;;;;;;;;;23.80;77.00;;;;;;1989357;28;19906;-72
2022/08/05 03:57:43;;;;;;;;;;;23.90;77.10;;;;;;1989121;28;19906;-72
2022/08/05 03:58:44;;;;;;;;;;;23.90;77.10;;;;;;1989152;28;19910;-72
2022/08/05 03:59:45;;;;;;;;;;;23.90;77.20;;;;;;1989145;28;19906;-72
2022/08/05 04:00:44;;;;;;;;;;;23.90;77.20;;;;;;1989155;28;20264;-72
2022/08/05 04:01:44;;;;;;;;;;;23.80;77.10;;;;;;1989197;28;20371;-72
2022/08/05 04:02:46;;;;;;;;;;;23.80;77.20;;;;;;1989258;28;20309;-71
2022/08/05 04:03:46;;;;;;;;;;;23.90;77.30;;;;;;1996209;28;19910;-72
2022/08/05 04:04:44;;;;;;;;;;;23.80;77.20;;;;;;1996457;28;19906;-72
2022/08/05 04:05:43;;;;;;;;;;;23.80;77.20;;;;;;1989500;28;19914;-72
2022/08/05 04:06:43;;;;;;;;;;;23.80;77.10;;;;;;1989171;28;19910;-73
2022/08/05 04:07:41;;;;;;;;;;;23.80;77.10;;;;;;1989648;28;19954;-73
2022/08/05 04:08:41;;;;;;;;;;;23.90;77.10;;;;;;1990740;28;19906;-72
2022/08/05 04:09:39;;;;;;;;;;;23.90;77.10;;;;;;1990694;28;19906;-72
2022/08/05 04:10:38;;;;;;;;;;;23.90;77.10;;;;;;1990651;28;19956;-73
2022/08/05 04:11:36;;;;;;;;;;;23.90;77.10;;;;;;1990731;28;19906;-72
2022/08/05 04:12:35;;;;;;;;;;;23.90;77.20;;;;;;1990679;28;19906;-74
2022/08/05 04:13:33;;;;;;;;;;;23.80;77.10;;;;;;1990715;28;19933;-72
2022/08/05 04:14:32;;;;;;;;;;;23.80;77.10;;;;;;1990696;28;19906;-72
2022/08/05 04:15:31;;;;;;;;;;;23.80;77.10;;;;;;1990207;28;19983;-73
2022/08/05 04:16:30;;;;;;;;;;;23.90;77.10;;;;;;1990898;28;19906;-73
2022/08/05 04:17:30;;;;;;;;;;;23.80;77.00;;;;;;1990611;28;20004;-73
2022/08/05 04:18:30;;;;;;;;;;;23.80;77.00;;;;;;1990635;28;20004;-73
2022/08/05 04:19:29;;;;;;;;;;;23.90;77.10;;;;;;1982291;29;19913;-73
2022/08/05 04:20:28;;;;;;;;;;;23.80;77.00;;;;;;1982391;28;19996;-72
2022/08/05 04:21:27;;;;;;;;;;;23.80;77.00;;;;;;1990241;28;20353;-72
2022/08/05 04:22:25;;;;;;;;;;;23.80;77.00;;;;;;1990707;28;19913;-74
2022/08/05 04:23:25;;;;;;;;;;;23.80;77.00;;;;;;1990717;28;19940;-72
2022/08/05 04:24:23;;;;;;;;;;;23.80;77.00;;;;;;1990733;28;19913;-72
2022/08/05 04:25:22;;;;;;;;;;;23.80;77.00;;;;;;1990740;28;19937;-72
2022/08/05 04:26:20;;;;;;;;;;;23.80;77.00;;;;;;1990892;28;19910;-72
2022/08/05 04:27:19;;;;;;;;;;;23.80;77.00;;;;;;1990752;28;19957;-73
2022/08/05 04:28:19;;;;;;;;;;;23.80;77.00;;;;;;1990689;28;19906;-72
2022/08/05 04:29:18;;;;;;;;;;;23.80;77.00;;;;;;1990731;28;20289;-72
2022/08/05 04:30:17;;;;;;;;;;;23.80;77.00;;;;;;1990568;28;19960;-73
2022/08/05 04:31:15;;;;;;;;;;;23.80;77.00;;;;;;1997863;28;19905;-73
2022/08/05 04:32:14;;;;;;;;;;;23.80;77.10;;;;;;1998128;28;19960;-72
2022/08/05 04:33:13;;;;;;;;;;;23.80;77.00;;;;;;1991209;28;19956;-72
2022/08/05 04:34:11;;;;;;;;;;;23.80;77.00;;;;;;1990561;28;19906;-73
2022/08/05 04:35:10;;;;;;;;;;;23.80;77.00;;;;;;1990516;28;19950;-74
2022/08/05 04:36:09;;;;;;;;;;;23.80;77.00;;;;;;1989917;28;19913;-73
2022/08/05 04:37:07;;;;;;;;;;;23.80;77.00;;;;;;1989940;28;19906;-73
2022/08/05 04:38:06;;;;;;;;;;;23.80;76.90;;;;;;1990605;28;19913;-73
2022/08/05 04:39:04;;;;;;;;;;;23.80;77.00;;;;;;1990599;28;19906;-72
2022/08/05 04:40:03;;;;;;;;;;;23.80;77.20;;;;;;1990534;28;20062;-71
2022/08/05 04:41:01;;;;;;;;;;;23.80;77.00;;;;;;1990422;28;19913;-72
2022/08/05 04:42:00;;;;;;;;;;;23.80;77.10;;;;;;1990470;28;19910;-73
2022/08/05 04:42:58;;;;;;;;;;;23.80;77.10;;;;;;1990473;28;19956;-72
2022/08/05 04:43:58;;;;;;;;;;;23.80;77.10;;;;;;1990402;28;19907;-73
2022/08/05 04:44:56;;;;;;;;;;;23.80;77.00;;;;;;1997643;28;19973;-73
2022/08/05 04:45:55;;;;;;;;;;;23.80;77.00;;;;;;1997813;28;19913;-73
2022/08/05 04:46:53;;;;;;;;;;;23.80;77.00;;;;;;1991019;28;20273;-72
2022/08/05 04:47:52;;;;;;;;;;;23.80;77.10;;;;;;1990470;28;20401;-72
2022/08/05 04:48:50;;;;;;;;;;;23.80;77.10;;;;;;1990449;28;19910;-73
2022/08/05 04:49:49;;;;;;;;;;;23.80;77.10;;;;;;1990498;28;19917;-72
2022/08/05 04:50:48;;;;;;;;;;;23.80;77.10;;;;;;1997575;28;19941;-72
2022/08/05 04:51:46;;;;;;;;;;;23.80;77.00;;;;;;1997604;28;19976;-73
2022/08/05 04:52:45;;;;;;;;;;;23.80;77.10;;;;;;1990938;28;19913;-72
2022/08/05 04:53:43;;;;;;;;;;;23.80;77.10;;;;;;1990343;28;19906;-73
2022/08/05 04:54:42;;;;;;;;;;;23.80;77.10;;;;;;1990354;28;20021;-73
2022/08/05 04:55:41;;;;;;;;;;;23.80;77.80;;;;;;1990294;28;20012;-72
2022/08/05 04:56:39;;;;;;;;;;;23.80;77.20;;;;;;1990443;28;20082;-73
2022/08/05 04:57:38;;;;;;;;;;;23.80;77.20;;;;;;1990387;28;19953;-73
2022/08/05 04:58:36;;;;;;;;;;;23.80;77.20;;;;;;1990422;28;19906;-73
2022/08/05 04:59:35;;;;;;;;;;;23.80;77.20;;;;;;1990363;28;20004;-74
2022/08/05 05:00:34;;;;;;;;;;;23.80;77.20;;;;;;1990316;28;19910;-73
2022/08/05 05:01:32;;;;;;;;;;;23.80;77.20;;;;;;1990325;28;20006;-74
2022/08/05 05:02:31;;;;;;;;;;;23.80;77.20;;;;;;1990314;28;20081;-72
2022/08/05 05:03:29;;;;;;;;;;;23.80;77.20;;;;;;1990316;28;19996;-72
2022/08/05 05:04:28;;;;;;;;;;;23.80;77.20;;;;;;1990446;28;19906;-72
2022/08/05 05:05:26;;;;;;;;;;;23.80;77.10;;;;;;1990760;28;19941;-72
2022/08/05 05:06:26;;;;;;;;;;;23.80;77.10;;;;;;1990616;28;20298;-72
2022/08/05 05:07:24;;;;;;;;;;;23.80;77.10;;;;;;1990331;28;20043;-73
2022/08/05 05:08:23;;;;;;;;;;;23.80;77.10;;;;;;1990587;28;20094;-74
2022/08/05 05:09:21;;;;;;;;;;;23.80;77.00;;;;;;1990316;28;20369;-72
2022/08/05 05:10:20;;;;;;;;;;;23.80;77.00;;;;;;1990371;28;20487;-72
2022/08/05 05:11:18;;;;;;;;;;;23.80;77.00;;;;;;1990128;28;19906;-73
2022/08/05 05:12:17;;;;;;;;;;;23.80;76.90;;;;;;1990205;28;20044;-73
2022/08/05 05:13:16;;;;;;;;;;;23.80;76.90;;;;;;1990369;28;20002;-72
2022/08/05 05:14:15;;;;;;;;;;;23.80;77.00;;;;;;1990202;28;19952;-72
2022/08/05 05:15:14;;;;;;;;;;;23.80;77.00;;;;;;1990225;28;19913;-72
2022/08/05 05:16:13;;;;;;;;;;;23.80;77.10;;;;;;1990379;28;19918;-72
2022/08/05 05:17:12;;;;;;;;;;;23.80;77.10;;;;;;1990389;28;19912;-72
2022/08/05 05:18:14;;;;;;;;;;;23.70;77.00;;;;;;1990245;28;19914;-73
2022/08/05 05:19:12;;;;;;;;;;;23.80;77.10;;;;;;1989521;28;19936;-72
2022/08/05 05:20:11;;;;;;;;;;;23.80;77.00;;;;;;1990080;28;20317;-73
2022/08/05 05:21:10;;;;;;;;;;;23.80;77.00;;;;;;1990006;28;19912;-72
2022/08/05 05:22:08;;;;;;;;;;;23.80;77.10;;;;;;1990343;28;19913;-72
2022/08/05 05:23:07;;;;;;;;;;;23.80;77.00;;;;;;1990524;28;19916;-72
2022/08/05 05:24:05;;;;;;;;;;;23.80;77.00;;;;;;1990536;28;19906;-73
2022/08/05 05:25:04;;;;;;;;;;;23.80;77.10;;;;;;1990188;28;19919;-73
2022/08/05 05:26:03;;;;;;;;;;;23.80;77.00;;;;;;1990181;28;19913;-73
2022/08/05 05:27:01;;;;;;;;;;;23.80;77.00;;;;;;1990311;28;19906;-71
2022/08/05 05:28:00;;;;;;;;;;;23.80;77.00;;;;;;1990188;28;19917;-73
2022/08/05 05:28:58;;;;;;;;;;;23.80;77.00;;;;;;1990206;28;20285;-73
2022/08/05 05:29:57;;;;;;;;;;;23.80;76.90;;;;;;1991991;28;19906;-74
2022/08/05 05:30:56;;;;;;;;;;;23.80;76.90;;;;;;1994450;28;19905;-72
2022/08/05 05:31:55;;;;;;;;;;;23.80;76.90;;;;;;1991152;28;20361;-73
2022/08/05 05:32:54;;;;;;;;;;;23.80;76.90;;;;;;1991729;28;19910;-72
2022/08/05 05:33:53;;;;;;;;;;;23.80;76.80;;;;;;1993775;28;19906;-73
2022/08/05 05:34:52;;;;;;;;;;;23.80;76.90;;;;;;1995337;28;19941;-73
2022/08/05 05:35:50;;;;;;;;;;;23.80;76.90;;;;;;1994695;28;20369;-74
2022/08/05 05:36:49;;;;;;;;;;;23.80;76.90;;;;;;1994908;28;19906;-73
2022/08/05 05:37:51;;;;;;;;;;;23.80;76.90;;;;;;2002040;28;19910;-73
2022/08/05 05:38:49;;;;;;;;;;;23.80;76.90;;;;;;2004688;28;19973;-72
2022/08/05 05:39:48;;;;;;;;;;;23.80;76.90;;;;;;1996510;28;19929;-73
2022/08/05 05:40:47;;;;;;;;;;;23.80;76.90;;;;;;1995686;28;20404;-72
2022/08/05 05:41:46;;;;;;;;;;;23.80;76.90;;;;;;1996357;28;19906;-73
2022/08/05 05:42:45;;;;;;;;;;;23.80;76.80;;;;;;2003861;28;19913;-74
2022/08/05 05:43:45;;;;;;;;;;;23.80;76.80;;;;;;2000429;28;20056;-71
2022/08/05 05:44:43;;;;;;;;;;;23.80;76.80;;;;;;1997749;28;19967;-70
2022/08/05 05:45:42;;;;;;;;;;;23.80;76.90;;;;;;1999071;28;19926;-71
2022/08/05 05:46:40;;;;;;;;;;;23.70;76.80;;;;;;1998032;28;19917;-71
2022/08/05 05:47:39;;;;;;;;;;;23.80;76.80;;;;;;1999145;28;19934;-71
2022/08/05 05:48:40;;;;;;;;;;;23.80;76.80;;;;;;1998953;28;19916;-70